Osceola, MO (64776)

6:40 AM CST on February 20, 2017 (GMT -0600)
Gordon's Orchard | | Change Station

Elev 925 ft 37.98 °N, 93.65 °W | Updated 24 seconds ago

Partly Cloudy
Partly Cloudy
62.7 °F
Feels Like 62.7 °F
N
12.0
Wind Variable Wind from SE

Today
High -- | Low -- °F
--% Chance of Precip.
Yesterday
High -- | Low -- °F
Precip. -- in
Pressure 29.87 in
Visibility 10.0 miles
Clouds Mostly Cloudy 5000 ft
Dew Point 55 °F
Humidity 78%
Rainfall 0.00 in
Snow Depth Not available.
6:58 AM 5:59 PM
Waning Crescent, 34% visible
METAR KGLY 201235Z AUTO 15011KT 10SM BKN050 17/12 A2987 RMK AO2
Pressure 29.87 in
Visibility 10.0 miles
Clouds Mostly Cloudy 5000 ft
Dew Point 55 °F
Humidity 78%
Rainfall 0.00 in
Snow Depth Not available.
6:58 AM 5:59 PM
Waning Crescent, 34% visible
METAR KGLY 201235Z AUTO 15011KT 10SM BKN050 17/12 A2987 RMK AO2

Get Your Daily Forecast Email!

Thanks for signing up!

Be on the lookout for a verification email in your inbox.

You'll start receiving the daily forecast at 8 AM.

×

10-Day Weather Forecast

Almanac

Astronomy

Feb. 20, 2017 Rise Set
Actual Time
Civil Twilight
Nautical Twilight
Astronomical Twilight
Moon
Length of Visible Light
Length of Day
Tomorrow will be .
, % of the Moon is Illuminated

Today's Extremes

State Highs State Lows

Community

WunderPhotos

Upload Photos

1,962,540 photos uploaded!

WunderBlog® & News

Nearby

Air Quality

  Air Quality AQ Index Pollutant
Not available.

Snow Depth

Station Depth Elevation

Earthquake Activity

City Distance Mag. Time & Date
Minimum magnitude displayed is 2.5.

Coastal Water Temperatures

Place Temperature

Stations

Nearby Weather Stations

Station Location Temp. Windchill Dew Point Humidity Wind Precip. Elev Updated Type
                   

Watches & Warnings

There are currently no watches in effect.